sensor_id;sensor_type;location;lat;lon;timestamp;P1;durP1;ratioP1;P2;durP2;ratioP2
21122;SDS011;10719;48.130;11.630;2023-07-16T00:01:58;8.27;;;3.13;;
21122;SDS011;10719;48.130;11.630;2023-07-16T00:04:24;9.07;;;2.95;;
21122;SDS011;10719;48.130;11.630;2023-07-16T00:06:49;11.25;;;3.45;;
21122;SDS011;10719;48.130;11.630;2023-07-16T00:09:15;7.40;;;3.47;;
21122;SDS011;10719;48.130;11.630;2023-07-16T00:11:40;7.63;;;3.30;;
21122;SDS011;10719;48.130;11.630;2023-07-16T00:14:06;6.70;;;2.83;;
21122;SDS011;10719;48.130;11.630;2023-07-16T00:16:32;10.82;;;2.97;;
21122;SDS011;10719;48.130;11.630;2023-07-16T00:18:58;8.85;;;3.38;;
21122;SDS011;10719;48.130;11.630;2023-07-16T00:21:24;7.38;;;2.95;;
21122;SDS011;10719;48.130;11.630;2023-07-16T00:23:50;9.35;;;3.25;;
21122;SDS011;10719;48.130;11.630;2023-07-16T00:26:15;7.80;;;2.60;;
21122;SDS011;10719;48.130;11.630;2023-07-16T00:28:41;9.18;;;3.20;;
21122;SDS011;10719;48.130;11.630;2023-07-16T00:31:07;7.63;;;3.20;;
21122;SDS011;10719;48.130;11.630;2023-07-16T00:33:33;8.60;;;3.15;;
21122;SDS011;10719;48.130;11.630;2023-07-16T00:35:58;9.35;;;3.38;;
21122;SDS011;10719;48.130;11.630;2023-07-16T00:38:24;7.35;;;2.90;;
21122;SDS011;10719;48.130;11.630;2023-07-16T00:40:49;6.32;;;3.08;;
21122;SDS011;10719;48.130;11.630;2023-07-16T00:43:15;10.15;;;3.63;;
21122;SDS011;10719;48.130;11.630;2023-07-16T00:45:41;10.52;;;3.38;;
21122;SDS011;10719;48.130;11.630;2023-07-16T00:48:09;7.82;;;3.40;;
21122;SDS011;10719;48.130;11.630;2023-07-16T00:50:36;9.27;;;3.38;;
21122;SDS011;10719;48.130;11.630;2023-07-16T00:53:05;6.97;;;2.90;;
21122;SDS011;10719;48.130;11.630;2023-07-16T00:55:31;9.02;;;3.47;;
21122;SDS011;10719;48.130;11.630;2023-07-16T00:58:01;7.78;;;3.15;;
21122;SDS011;10719;48.130;11.630;2023-07-16T01:00:32;6.85;;;3.53;;
21122;SDS011;10719;48.130;11.630;2023-07-16T01:03:00;8.55;;;3.38;;
21122;SDS011;10719;48.130;11.630;2023-07-16T01:05:28;8.13;;;3.20;;
21122;SDS011;10719;48.130;11.630;2023-07-16T01:08:01;8.65;;;3.03;;
21122;SDS011;10719;48.130;11.630;2023-07-16T01:10:29;10.65;;;3.95;;
21122;SDS011;10719;48.130;11.630;2023-07-16T01:12:56;10.45;;;3.75;;
21122;SDS011;10719;48.130;11.630;2023-07-16T01:15:23;8.68;;;3.90;;
21122;SDS011;10719;48.130;11.630;2023-07-16T01:17:49;12.50;;;3.40;;
21122;SDS011;10719;48.130;11.630;2023-07-16T01:20:15;9.35;;;3.65;;
21122;SDS011;10719;48.130;11.630;2023-07-16T01:25:46;9.63;;;3.92;;
21122;SDS011;10719;48.130;11.630;2023-07-16T01:28:27;10.07;;;3.80;;
21122;SDS011;10719;48.130;11.630;2023-07-16T01:30:59;9.20;;;3.88;;
21122;SDS011;10719;48.130;11.630;2023-07-16T01:33:26;13.00;;;3.75;;
21122;SDS011;10719;48.130;11.630;2023-07-16T01:35:51;9.73;;;3.53;;
21122;SDS011;10719;48.130;11.630;2023-07-16T01:38:17;8.98;;;3.80;;
21122;SDS011;10719;48.130;11.630;2023-07-16T01:40:45;8.63;;;3.40;;
21122;SDS011;10719;48.130;11.630;2023-07-16T01:43:12;9.80;;;3.70;;
21122;SDS011;10719;48.130;11.630;2023-07-16T01:45:37;8.68;;;3.50;;
21122;SDS011;10719;48.130;11.630;2023-07-16T01:50:35;10.90;;;3.90;;
21122;SDS011;10719;48.130;11.630;2023-07-16T01:53:00;8.57;;;3.65;;
21122;SDS011;10719;48.130;11.630;2023-07-16T01:55:26;9.48;;;4.13;;
21122;SDS011;10719;48.130;11.630;2023-07-16T01:57:51;11.90;;;4.80;;
21122;SDS011;10719;48.130;11.630;2023-07-16T02:00:17;9.82;;;3.97;;
21122;SDS011;10719;48.130;11.630;2023-07-16T02:02:43;9.65;;;3.58;;
21122;SDS011;10719;48.130;11.630;2023-07-16T02:05:09;11.43;;;3.63;;
21122;SDS011;10719;48.130;11.630;2023-07-16T02:07:35;10.23;;;4.07;;
21122;SDS011;10719;48.130;11.630;2023-07-16T02:10:00;11.32;;;4.03;;
21122;SDS011;10719;48.130;11.630;2023-07-16T02:12:26;10.35;;;3.95;;
21122;SDS011;10719;48.130;11.630;2023-07-16T02:14:51;9.80;;;4.10;;
21122;SDS011;10719;48.130;11.630;2023-07-16T02:17:17;8.30;;;3.72;;
21122;SDS011;10719;48.130;11.630;2023-07-16T02:19:42;11.13;;;4.18;;
21122;SDS011;10719;48.130;11.630;2023-07-16T02:22:08;9.95;;;4.25;;
21122;SDS011;10719;48.130;11.630;2023-07-16T02:24:33;9.68;;;4.13;;
21122;SDS011;10719;48.130;11.630;2023-07-16T02:27:00;9.38;;;4.13;;
21122;SDS011;10719;48.130;11.630;2023-07-16T02:29:26;9.60;;;3.70;;
21122;SDS011;10719;48.130;11.630;2023-07-16T02:31:52;9.55;;;3.63;;
21122;SDS011;10719;48.130;11.630;2023-07-16T02:34:17;9.55;;;4.22;;
21122;SDS011;10719;48.130;11.630;2023-07-16T02:36:43;12.25;;;4.50;;
21122;SDS011;10719;48.130;11.630;2023-07-16T02:39:08;10.20;;;3.95;;
21122;SDS011;10719;48.130;11.630;2023-07-16T02:41:34;10.27;;;4.03;;
21122;SDS011;10719;48.130;11.630;2023-07-16T02:44:00;11.00;;;3.72;;
21122;SDS011;10719;48.130;11.630;2023-07-16T02:46:26;10.73;;;4.05;;
21122;SDS011;10719;48.130;11.630;2023-07-16T02:48:52;13.18;;;4.20;;
21122;SDS011;10719;48.130;11.630;2023-07-16T02:51:18;11.75;;;3.85;;
21122;SDS011;10719;48.130;11.630;2023-07-16T02:53:43;9.00;;;4.13;;
21122;SDS011;10719;48.130;11.630;2023-07-16T02:56:09;9.38;;;3.75;;
21122;SDS011;10719;48.130;11.630;2023-07-16T02:58:34;10.80;;;4.03;;
21122;SDS011;10719;48.130;11.630;2023-07-16T03:01:00;9.38;;;3.88;;
21122;SDS011;10719;48.130;11.630;2023-07-16T03:03:25;10.85;;;3.90;;
21122;SDS011;10719;48.130;11.630;2023-07-16T03:05:51;10.85;;;4.10;;
21122;SDS011;10719;48.130;11.630;2023-07-16T03:08:16;11.60;;;4.13;;
21122;SDS011;10719;48.130;11.630;2023-07-16T03:10:42;11.40;;;4.35;;
21122;SDS011;10719;48.130;11.630;2023-07-16T03:13:08;7.85;;;3.28;;
21122;SDS011;10719;48.130;11.630;2023-07-16T03:15:33;11.90;;;4.10;;
21122;SDS011;10719;48.130;11.630;2023-07-16T03:17:59;9.20;;;3.47;;
21122;SDS011;10719;48.130;11.630;2023-07-16T03:20:24;8.05;;;3.33;;
21122;SDS011;10719;48.130;11.630;2023-07-16T03:22:50;9.02;;;3.50;;
21122;SDS011;10719;48.130;11.630;2023-07-16T03:25:15;6.43;;;2.95;;
21122;SDS011;10719;48.130;11.630;2023-07-16T03:27:41;5.95;;;2.90;;
21122;SDS011;10719;48.130;11.630;2023-07-16T03:30:07;7.63;;;2.85;;
21122;SDS011;10719;48.130;11.630;2023-07-16T03:32:33;6.35;;;2.67;;
21122;SDS011;10719;48.130;11.630;2023-07-16T03:34:58;7.35;;;2.53;;
21122;SDS011;10719;48.130;11.630;2023-07-16T03:37:24;8.05;;;2.60;;
21122;SDS011;10719;48.130;11.630;2023-07-16T03:39:49;3.70;;;2.13;;
21122;SDS011;10719;48.130;11.630;2023-07-16T03:42:15;8.63;;;2.53;;
21122;SDS011;10719;48.130;11.630;2023-07-16T03:44:41;7.25;;;2.60;;
21122;SDS011;10719;48.130;11.630;2023-07-16T03:47:07;5.18;;;2.30;;
21122;SDS011;10719;48.130;11.630;2023-07-16T03:49:32;5.90;;;2.42;;
21122;SDS011;10719;48.130;11.630;2023-07-16T03:51:58;8.30;;;2.53;;
21122;SDS011;10719;48.130;11.630;2023-07-16T03:54:23;7.30;;;2.90;;
21122;SDS011;10719;48.130;11.630;2023-07-16T03:56:49;6.75;;;2.97;;
21122;SDS011;10719;48.130;11.630;2023-07-16T03:59:14;7.65;;;2.60;;
21122;SDS011;10719;48.130;11.630;2023-07-16T04:01:40;7.28;;;2.90;;
21122;SDS011;10719;48.130;11.630;2023-07-16T04:04:05;8.25;;;2.90;;
21122;SDS011;10719;48.130;11.630;2023-07-16T04:06:31;7.50;;;3.00;;
21122;SDS011;10719;48.130;11.630;2023-07-16T04:08:57;9.90;;;3.40;;
21122;SDS011;10719;48.130;11.630;2023-07-16T04:11:22;10.18;;;3.30;;
21122;SDS011;10719;48.130;11.630;2023-07-16T04:13:48;7.35;;;3.08;;
21122;SDS011;10719;48.130;11.630;2023-07-16T04:16:13;7.72;;;3.13;;
21122;SDS011;10719;48.130;11.630;2023-07-16T04:18:39;7.55;;;2.78;;
21122;SDS011;10719;48.130;11.630;2023-07-16T04:21:04;6.97;;;2.60;;
21122;SDS011;10719;48.130;11.630;2023-07-16T04:23:30;7.60;;;2.30;;
21122;SDS011;10719;48.130;11.630;2023-07-16T04:25:56;5.18;;;2.05;;
21122;SDS011;10719;48.130;11.630;2023-07-16T04:28:21;10.50;;;2.33;;
21122;SDS011;10719;48.130;11.630;2023-07-16T04:30:47;4.95;;;1.98;;
21122;SDS011;10719;48.130;11.630;2023-07-16T04:33:12;5.72;;;2.10;;
21122;SDS011;10719;48.130;11.630;2023-07-16T04:35:38;4.50;;;1.90;;
21122;SDS011;10719;48.130;11.630;2023-07-16T04:38:03;3.38;;;1.70;;
21122;SDS011;10719;48.130;11.630;2023-07-16T04:40:29;4.72;;;1.98;;
21122;SDS011;10719;48.130;11.630;2023-07-16T04:42:55;5.45;;;2.10;;
21122;SDS011;10719;48.130;11.630;2023-07-16T04:45:21;6.20;;;2.33;;
21122;SDS011;10719;48.130;11.630;2023-07-16T04:47:47;6.32;;;2.08;;
21122;SDS011;10719;48.130;11.630;2023-07-16T04:50:13;7.55;;;2.60;;
21122;SDS011;10719;48.130;11.630;2023-07-16T04:52:38;6.55;;;2.45;;
21122;SDS011;10719;48.130;11.630;2023-07-16T04:55:04;6.93;;;2.20;;
21122;SDS011;10719;48.130;11.630;2023-07-16T04:57:30;6.43;;;2.65;;
21122;SDS011;10719;48.130;11.630;2023-07-16T04:59:57;5.30;;;2.45;;
21122;SDS011;10719;48.130;11.630;2023-07-16T05:02:22;5.38;;;2.35;;
21122;SDS011;10719;48.130;11.630;2023-07-16T05:04:48;8.00;;;2.60;;
21122;SDS011;10719;48.130;11.630;2023-07-16T05:07:13;6.00;;;2.50;;
21122;SDS011;10719;48.130;11.630;2023-07-16T05:09:39;6.80;;;2.78;;
21122;SDS011;10719;48.130;11.630;2023-07-16T05:12:05;7.43;;;2.50;;
21122;SDS011;10719;48.130;11.630;2023-07-16T05:14:31;8.20;;;3.00;;
21122;SDS011;10719;48.130;11.630;2023-07-16T05:17:07;5.82;;;2.78;;
21122;SDS011;10719;48.130;11.630;2023-07-16T05:19:33;6.32;;;3.00;;
21122;SDS011;10719;48.130;11.630;2023-07-16T05:21:58;9.23;;;2.92;;
21122;SDS011;10719;48.130;11.630;2023-07-16T05:24:24;5.63;;;2.67;;
21122;SDS011;10719;48.130;11.630;2023-07-16T05:26:49;9.07;;;2.97;;
21122;SDS011;10719;48.130;11.630;2023-07-16T05:29:16;6.60;;;2.72;;
21122;SDS011;10719;48.130;11.630;2023-07-16T05:31:42;6.75;;;2.67;;
21122;SDS011;10719;48.130;11.630;2023-07-16T05:34:07;7.70;;;2.60;;
21122;SDS011;10719;48.130;11.630;2023-07-16T05:36:33;8.38;;;3.30;;
21122;SDS011;10719;48.130;11.630;2023-07-16T05:38:58;9.00;;;2.70;;
21122;SDS011;10719;48.130;11.630;2023-07-16T05:41:24;5.22;;;2.60;;
21122;SDS011;10719;48.130;11.630;2023-07-16T05:43:50;7.18;;;2.50;;
21122;SDS011;10719;48.130;11.630;2023-07-16T05:46:15;8.07;;;2.40;;
21122;SDS011;10719;48.130;11.630;2023-07-16T05:48:41;4.18;;;2.20;;
21122;SDS011;10719;48.130;11.630;2023-07-16T05:51:06;5.53;;;2.28;;
21122;SDS011;10719;48.130;11.630;2023-07-16T05:53:33;5.07;;;1.90;;
21122;SDS011;10719;48.130;11.630;2023-07-16T05:55:58;5.75;;;2.22;;
21122;SDS011;10719;48.130;11.630;2023-07-16T05:58:24;3.45;;;1.80;;
21122;SDS011;10719;48.130;11.630;2023-07-16T06:00:50;2.85;;;1.38;;
21122;SDS011;10719;48.130;11.630;2023-07-16T06:03:16;3.00;;;1.58;;
21122;SDS011;10719;48.130;11.630;2023-07-16T06:05:44;4.00;;;1.70;;
21122;SDS011;10719;48.130;11.630;2023-07-16T06:08:10;6.15;;;1.90;;
21122;SDS011;10719;48.130;11.630;2023-07-16T06:10:36;5.45;;;2.08;;
21122;SDS011;10719;48.130;11.630;2023-07-16T06:13:02;3.15;;;1.40;;
21122;SDS011;10719;48.130;11.630;2023-07-16T06:15:28;2.70;;;1.42;;
21122;SDS011;10719;48.130;11.630;2023-07-16T06:17:54;5.40;;;1.50;;
21122;SDS011;10719;48.130;11.630;2023-07-16T06:20:19;3.33;;;1.47;;
21122;SDS011;10719;48.130;11.630;2023-07-16T06:22:45;3.10;;;1.05;;
21122;SDS011;10719;48.130;11.630;2023-07-16T06:25:10;3.38;;;1.10;;
21122;SDS011;10719;48.130;11.630;2023-07-16T06:27:36;5.22;;;1.30;;
21122;SDS011;10719;48.130;11.630;2023-07-16T06:30:02;5.93;;;1.58;;
21122;SDS011;10719;48.130;11.630;2023-07-16T06:32:27;5.00;;;1.40;;
21122;SDS011;10719;48.130;11.630;2023-07-16T06:34:53;3.08;;;1.30;;
21122;SDS011;10719;48.130;11.630;2023-07-16T06:37:18;3.95;;;1.90;;
21122;SDS011;10719;48.130;11.630;2023-07-16T06:39:44;7.00;;;1.98;;
21122;SDS011;10719;48.130;11.630;2023-07-16T06:42:09;3.83;;;1.75;;
21122;SDS011;10719;48.130;11.630;2023-07-16T06:44:35;3.40;;;1.67;;
21122;SDS011;10719;48.130;11.630;2023-07-16T06:47:01;4.75;;;2.10;;
21122;SDS011;10719;48.130;11.630;2023-07-16T06:49:26;6.32;;;1.63;;
21122;SDS011;10719;48.130;11.630;2023-07-16T06:51:52;6.40;;;2.17;;
21122;SDS011;10719;48.130;11.630;2023-07-16T06:54:17;5.22;;;2.17;;
21122;SDS011;10719;48.130;11.630;2023-07-16T06:56:43;4.70;;;2.13;;
21122;SDS011;10719;48.130;11.630;2023-07-16T06:59:09;4.70;;;2.00;;
21122;SDS011;10719;48.130;11.630;2023-07-16T07:01:34;7.07;;;2.10;;
21122;SDS011;10719;48.130;11.630;2023-07-16T07:04:00;4.05;;;2.08;;
21122;SDS011;10719;48.130;11.630;2023-07-16T07:06:25;5.25;;;2.00;;
21122;SDS011;10719;48.130;11.630;2023-07-16T07:08:51;5.70;;;2.42;;
21122;SDS011;10719;48.130;11.630;2023-07-16T07:11:17;5.85;;;2.20;;
21122;SDS011;10719;48.130;11.630;2023-07-16T07:13:42;3.97;;;2.00;;
21122;SDS011;10719;48.130;11.630;2023-07-16T07:16:08;5.78;;;2.22;;
21122;SDS011;10719;48.130;11.630;2023-07-16T07:18:33;4.90;;;2.22;;
21122;SDS011;10719;48.130;11.630;2023-07-16T07:20:59;4.45;;;1.85;;
21122;SDS011;10719;48.130;11.630;2023-07-16T07:23:24;3.22;;;1.73;;
21122;SDS011;10719;48.130;11.630;2023-07-16T07:25:50;5.07;;;1.92;;
21122;SDS011;10719;48.130;11.630;2023-07-16T07:28:17;4.30;;;1.67;;
21122;SDS011;10719;48.130;11.630;2023-07-16T07:30:43;2.97;;;1.30;;
21122;SDS011;10719;48.130;11.630;2023-07-16T07:33:09;5.22;;;1.23;;
21122;SDS011;10719;48.130;11.630;2023-07-16T07:35:35;3.17;;;1.27;;
21122;SDS011;10719;48.130;11.630;2023-07-16T07:38:01;2.67;;;0.95;;
21122;SDS011;10719;48.130;11.630;2023-07-16T07:40:26;2.30;;;1.10;;
21122;SDS011;10719;48.130;11.630;2023-07-16T07:42:52;2.45;;;1.10;;
21122;SDS011;10719;48.130;11.630;2023-07-16T07:45:18;2.90;;;1.23;;
21122;SDS011;10719;48.130;11.630;2023-07-16T07:47:43;2.30;;;1.33;;
21122;SDS011;10719;48.130;11.630;2023-07-16T07:50:09;4.60;;;1.55;;
21122;SDS011;10719;48.130;11.630;2023-07-16T07:52:35;2.58;;;1.20;;
21122;SDS011;10719;48.130;11.630;2023-07-16T07:55:00;2.13;;;1.10;;
21122;SDS011;10719;48.130;11.630;2023-07-16T07:57:26;3.40;;;1.00;;
21122;SDS011;10719;48.130;11.630;2023-07-16T07:59:52;2.92;;;1.20;;
21122;SDS011;10719;48.130;11.630;2023-07-16T08:02:21;2.63;;;1.30;;
21122;SDS011;10719;48.130;11.630;2023-07-16T08:04:49;4.05;;;1.02;;
21122;SDS011;10719;48.130;11.630;2023-07-16T08:07:18;3.85;;;1.20;;
21122;SDS011;10719;48.130;11.630;2023-07-16T08:09:43;3.70;;;1.20;;
21122;SDS011;10719;48.130;11.630;2023-07-16T08:12:09;1.73;;;1.10;;
21122;SDS011;10719;48.130;11.630;2023-07-16T08:14:35;1.60;;;1.00;;
21122;SDS011;10719;48.130;11.630;2023-07-16T08:17:01;2.67;;;1.20;;
21122;SDS011;10719;48.130;11.630;2023-07-16T08:19:26;1.45;;;1.13;;
21122;SDS011;10719;48.130;11.630;2023-07-16T08:21:52;3.30;;;1.20;;
21122;SDS011;10719;48.130;11.630;2023-07-16T08:24:17;1.67;;;0.90;;
21122;SDS011;10719;48.130;11.630;2023-07-16T08:26:43;2.55;;;1.10;;
21122;SDS011;10719;48.130;11.630;2023-07-16T08:29:08;3.30;;;1.40;;
21122;SDS011;10719;48.130;11.630;2023-07-16T08:31:34;4.55;;;1.80;;
21122;SDS011;10719;48.130;11.630;2023-07-16T08:34:00;1.83;;;1.20;;
21122;SDS011;10719;48.130;11.630;2023-07-16T08:36:25;3.22;;;1.02;;
21122;SDS011;10719;48.130;11.630;2023-07-16T08:38:51;3.90;;;1.42;;
21122;SDS011;10719;48.130;11.630;2023-07-16T08:41:16;2.95;;;1.30;;
21122;SDS011;10719;48.130;11.630;2023-07-16T08:43:42;2.65;;;1.30;;
21122;SDS011;10719;48.130;11.630;2023-07-16T08:46:11;3.85;;;1.60;;
21122;SDS011;10719;48.130;11.630;2023-07-16T08:48:37;3.13;;;1.38;;
21122;SDS011;10719;48.130;11.630;2023-07-16T08:51:03;2.92;;;1.20;;
21122;SDS011;10719;48.130;11.630;2023-07-16T08:53:30;3.88;;;1.15;;
21122;SDS011;10719;48.130;11.630;2023-07-16T08:55:55;2.78;;;1.30;;
21122;SDS011;10719;48.130;11.630;2023-07-16T08:58:23;3.80;;;1.67;;
21122;SDS011;10719;48.130;11.630;2023-07-16T09:00:49;3.72;;;1.50;;
21122;SDS011;10719;48.130;11.630;2023-07-16T09:03:16;4.07;;;1.30;;
21122;SDS011;10719;48.130;11.630;2023-07-16T09:05:41;1.70;;;1.00;;
21122;SDS011;10719;48.130;11.630;2023-07-16T09:08:08;4.70;;;1.08;;
21122;SDS011;10719;48.130;11.630;2023-07-16T09:10:34;3.85;;;1.35;;
21122;SDS011;10719;48.130;11.630;2023-07-16T09:13:00;4.10;;;1.30;;
21122;SDS011;10719;48.130;11.630;2023-07-16T09:15:26;4.30;;;1.52;;
21122;SDS011;10719;48.130;11.630;2023-07-16T09:17:53;3.20;;;0.90;;
21122;SDS011;10719;48.130;11.630;2023-07-16T09:20:20;1.83;;;1.02;;
21122;SDS011;10719;48.130;11.630;2023-07-16T09:22:48;2.05;;;1.00;;
21122;SDS011;10719;48.130;11.630;2023-07-16T09:25:14;4.70;;;1.40;;
21122;SDS011;10719;48.130;11.630;2023-07-16T09:27:40;4.13;;;1.20;;
21122;SDS011;10719;48.130;11.630;2023-07-16T09:30:06;1.55;;;1.00;;
21122;SDS011;10719;48.130;11.630;2023-07-16T09:32:38;1.95;;;0.70;;
21122;SDS011;10719;48.130;11.630;2023-07-16T09:35:14;2.03;;;0.95;;
21122;SDS011;10719;48.130;11.630;2023-07-16T09:37:40;2.13;;;1.00;;
21122;SDS011;10719;48.130;11.630;2023-07-16T09:40:08;2.13;;;1.15;;
21122;SDS011;10719;48.130;11.630;2023-07-16T09:42:42;1.08;;;0.95;;
21122;SDS011;10719;48.130;11.630;2023-07-16T09:45:12;2.00;;;1.05;;
21122;SDS011;10719;48.130;11.630;2023-07-16T09:47:42;3.63;;;1.10;;
21122;SDS011;10719;48.130;11.630;2023-07-16T09:50:08;4.25;;;1.10;;
21122;SDS011;10719;48.130;11.630;2023-07-16T09:52:34;14.52;;;3.75;;
21122;SDS011;10719;48.130;11.630;2023-07-16T09:55:01;3.85;;;1.50;;
21122;SDS011;10719;48.130;11.630;2023-07-16T09:57:28;3.85;;;1.50;;
21122;SDS011;10719;48.130;11.630;2023-07-16T10:00:00;3.78;;;1.55;;
21122;SDS011;10719;48.130;11.630;2023-07-16T10:02:33;3.83;;;1.20;;
21122;SDS011;10719;48.130;11.630;2023-07-16T10:05:10;2.90;;;1.15;;
21122;SDS011;10719;48.130;11.630;2023-07-16T10:07:57;2.50;;;1.20;;
21122;SDS011;10719;48.130;11.630;2023-07-16T10:10:38;2.45;;;1.25;;
21122;SDS011;10719;48.130;11.630;2023-07-16T10:13:06;3.83;;;1.33;;
21122;SDS011;10719;48.130;11.630;2023-07-16T10:15:32;2.13;;;0.70;;
21122;SDS011;10719;48.130;11.630;2023-07-16T10:17:58;2.95;;;1.52;;
21122;SDS011;10719;48.130;11.630;2023-07-16T10:20:30;3.13;;;1.00;;
21122;SDS011;10719;48.130;11.630;2023-07-16T10:23:11;3.72;;;1.17;;
21122;SDS011;10719;48.130;11.630;2023-07-16T10:25:37;4.10;;;1.38;;
21122;SDS011;10719;48.130;11.630;2023-07-16T10:28:03;3.80;;;1.23;;
21122;SDS011;10719;48.130;11.630;2023-07-16T10:30:29;1.73;;;0.90;;
21122;SDS011;10719;48.130;11.630;2023-07-16T10:32:56;3.55;;;1.08;;
21122;SDS011;10719;48.130;11.630;2023-07-16T10:35:21;2.78;;;1.30;;
21122;SDS011;10719;48.130;11.630;2023-07-16T10:37:47;3.65;;;1.67;;
21122;SDS011;10719;48.130;11.630;2023-07-16T10:40:13;4.78;;;2.15;;
21122;SDS011;10719;48.130;11.630;2023-07-16T10:42:40;4.78;;;1.30;;
21122;SDS011;10719;48.130;11.630;2023-07-16T10:45:08;7.03;;;1.40;;
21122;SDS011;10719;48.130;11.630;2023-07-16T10:47:35;3.50;;;1.55;;
21122;SDS011;10719;48.130;11.630;2023-07-16T10:50:08;4.05;;;1.50;;
21122;SDS011;10719;48.130;11.630;2023-07-16T10:52:35;5.55;;;1.55;;
21122;SDS011;10719;48.130;11.630;2023-07-16T10:55:01;5.05;;;1.50;;
21122;SDS011;10719;48.130;11.630;2023-07-16T10:57:27;2.65;;;1.10;;
21122;SDS011;10719;48.130;11.630;2023-07-16T10:59:54;3.17;;;1.23;;
21122;SDS011;10719;48.130;11.630;2023-07-16T11:02:21;2.67;;;1.05;;
21122;SDS011;10719;48.130;11.630;2023-07-16T11:04:48;3.10;;;1.27;;
21122;SDS011;10719;48.130;11.630;2023-07-16T11:07:15;3.30;;;1.38;;
21122;SDS011;10719;48.130;11.630;2023-07-16T11:12:14;2.80;;;1.35;;
21122;SDS011;10719;48.130;11.630;2023-07-16T11:14:44;1.92;;;1.30;;
21122;SDS011;10719;48.130;11.630;2023-07-16T11:17:12;4.22;;;1.65;;
21122;SDS011;10719;48.130;11.630;2023-07-16T11:19:39;9.98;;;3.90;;
21122;SDS011;10719;48.130;11.630;2023-07-16T11:22:06;4.00;;;1.27;;
21122;SDS011;10719;48.130;11.630;2023-07-16T11:24:36;1.40;;;1.00;;
21122;SDS011;10719;48.130;11.630;2023-07-16T11:27:06;2.67;;;1.38;;
21122;SDS011;10719;48.130;11.630;2023-07-16T11:29:38;3.60;;;1.40;;
21122;SDS011;10719;48.130;11.630;2023-07-16T11:32:04;3.35;;;1.40;;
21122;SDS011;10719;48.130;11.630;2023-07-16T11:34:30;1.50;;;1.10;;
21122;SDS011;10719;48.130;11.630;2023-07-16T11:37:06;4.40;;;1.58;;
21122;SDS011;10719;48.130;11.630;2023-07-16T11:39:35;1.95;;;1.00;;
21122;SDS011;10719;48.130;11.630;2023-07-16T11:42:01;3.25;;;1.38;;
21122;SDS011;10719;48.130;11.630;2023-07-16T11:44:32;2.08;;;1.20;;
21122;SDS011;10719;48.130;11.630;2023-07-16T11:46:59;2.42;;;1.08;;
21122;SDS011;10719;48.130;11.630;2023-07-16T11:49:26;4.10;;;1.50;;
21122;SDS011;10719;48.130;11.630;2023-07-16T11:51:51;3.70;;;1.58;;
21122;SDS011;10719;48.130;11.630;2023-07-16T11:54:17;5.82;;;1.40;;
21122;SDS011;10719;48.130;11.630;2023-07-16T11:56:42;5.32;;;1.55;;
21122;SDS011;10719;48.130;11.630;2023-07-16T11:59:08;5.13;;;1.42;;
21122;SDS011;10719;48.130;11.630;2023-07-16T12:01:33;4.30;;;1.42;;
21122;SDS011;10719;48.130;11.630;2023-07-16T12:03:59;2.97;;;1.20;;
21122;SDS011;10719;48.130;11.630;2023-07-16T12:06:25;3.95;;;1.70;;
21122;SDS011;10719;48.130;11.630;2023-07-16T12:08:50;3.95;;;1.45;;
21122;SDS011;10719;48.130;11.630;2023-07-16T12:11:16;3.28;;;1.20;;
21122;SDS011;10719;48.130;11.630;2023-07-16T12:13:41;3.45;;;1.38;;
21122;SDS011;10719;48.130;11.630;2023-07-16T12:16:07;1.58;;;1.00;;
21122;SDS011;10719;48.130;11.630;2023-07-16T12:18:32;2.58;;;1.30;;
21122;SDS011;10719;48.130;11.630;2023-07-16T12:20:58;4.18;;;1.63;;
21122;SDS011;10719;48.130;11.630;2023-07-16T12:23:24;2.38;;;1.30;;
21122;SDS011;10719;48.130;11.630;2023-07-16T12:25:49;3.45;;;1.60;;
21122;SDS011;10719;48.130;11.630;2023-07-16T12:28:15;2.40;;;1.25;;
21122;SDS011;10719;48.130;11.630;2023-07-16T12:30:41;2.92;;;1.55;;
21122;SDS011;10719;48.130;11.630;2023-07-16T12:33:06;1.73;;;1.10;;
21122;SDS011;10719;48.130;11.630;2023-07-16T12:35:32;3.08;;;1.42;;
21122;SDS011;10719;48.130;11.630;2023-07-16T12:37:58;3.50;;;1.70;;
21122;SDS011;10719;48.130;11.630;2023-07-16T12:40:24;5.38;;;1.95;;
21122;SDS011;10719;48.130;11.630;2023-07-16T12:42:50;4.00;;;1.70;;
21122;SDS011;10719;48.130;11.630;2023-07-16T12:45:16;2.35;;;1.33;;
21122;SDS011;10719;48.130;11.630;2023-07-16T12:47:41;3.15;;;1.50;;
21122;SDS011;10719;48.130;11.630;2023-07-16T12:50:07;5.25;;;1.33;;
21122;SDS011;10719;48.130;11.630;2023-07-16T12:52:33;3.15;;;1.42;;
21122;SDS011;10719;48.130;11.630;2023-07-16T12:54:58;2.42;;;1.48;;
21122;SDS011;10719;48.130;11.630;2023-07-16T12:57:24;3.30;;;1.45;;
21122;SDS011;10719;48.130;11.630;2023-07-16T12:59:50;3.13;;;1.55;;
21122;SDS011;10719;48.130;11.630;2023-07-16T13:02:15;3.30;;;1.40;;
21122;SDS011;10719;48.130;11.630;2023-07-16T13:04:41;4.60;;;1.92;;
21122;SDS011;10719;48.130;11.630;2023-07-16T13:07:06;3.35;;;1.63;;
21122;SDS011;10719;48.130;11.630;2023-07-16T13:09:32;2.33;;;1.27;;
21122;SDS011;10719;48.130;11.630;2023-07-16T13:11:57;5.72;;;1.77;;
21122;SDS011;10719;48.130;11.630;2023-07-16T13:14:23;3.78;;;1.60;;
21122;SDS011;10719;48.130;11.630;2023-07-16T13:16:48;3.80;;;1.58;;
21122;SDS011;10719;48.130;11.630;2023-07-16T13:19:14;2.58;;;1.58;;
21122;SDS011;10719;48.130;11.630;2023-07-16T13:21:39;3.58;;;1.50;;
21122;SDS011;10719;48.130;11.630;2023-07-16T13:24:05;3.55;;;1.80;;
21122;SDS011;10719;48.130;11.630;2023-07-16T13:26:31;3.60;;;1.35;;
21122;SDS011;10719;48.130;11.630;2023-07-16T13:28:56;5.38;;;1.65;;
21122;SDS011;10719;48.130;11.630;2023-07-16T13:31:22;2.92;;;1.33;;
21122;SDS011;10719;48.130;11.630;2023-07-16T13:33:48;3.20;;;1.40;;
21122;SDS011;10719;48.130;11.630;2023-07-16T13:36:13;2.67;;;1.40;;
21122;SDS011;10719;48.130;11.630;2023-07-16T13:38:40;3.72;;;1.80;;
21122;SDS011;10719;48.130;11.630;2023-07-16T13:41:05;3.42;;;1.67;;
21122;SDS011;10719;48.130;11.630;2023-07-16T13:43:31;3.13;;;1.52;;
21122;SDS011;10719;48.130;11.630;2023-07-16T13:45:56;3.55;;;1.40;;
21122;SDS011;10719;48.130;11.630;2023-07-16T13:48:22;4.45;;;1.85;;
21122;SDS011;10719;48.130;11.630;2023-07-16T13:50:47;6.35;;;1.80;;
21122;SDS011;10719;48.130;11.630;2023-07-16T13:53:13;4.15;;;1.80;;
21122;SDS011;10719;48.130;11.630;2023-07-16T13:55:39;6.10;;;1.75;;
21122;SDS011;10719;48.130;11.630;2023-07-16T13:58:05;6.95;;;1.65;;
21122;SDS011;10719;48.130;11.630;2023-07-16T14:00:30;3.72;;;1.58;;
21122;SDS011;10719;48.130;11.630;2023-07-16T14:02:56;6.85;;;1.60;;
21122;SDS011;10719;48.130;11.630;2023-07-16T14:05:21;3.95;;;1.83;;
21122;SDS011;10719;48.130;11.630;2023-07-16T14:07:47;3.75;;;1.70;;
21122;SDS011;10719;48.130;11.630;2023-07-16T14:10:14;3.58;;;1.60;;
21122;SDS011;10719;48.130;11.630;2023-07-16T14:12:40;4.25;;;1.73;;
21122;SDS011;10719;48.130;11.630;2023-07-16T14:15:05;4.28;;;1.58;;
21122;SDS011;10719;48.130;11.630;2023-07-16T14:17:31;2.42;;;1.45;;
21122;SDS011;10719;48.130;11.630;2023-07-16T14:19:57;3.17;;;1.50;;
21122;SDS011;10719;48.130;11.630;2023-07-16T14:22:22;5.55;;;1.80;;
21122;SDS011;10719;48.130;11.630;2023-07-16T14:24:52;4.85;;;1.88;;
21122;SDS011;10719;48.130;11.630;2023-07-16T14:27:18;5.70;;;1.90;;
21122;SDS011;10719;48.130;11.630;2023-07-16T14:29:44;4.63;;;1.60;;
21122;SDS011;10719;48.130;11.630;2023-07-16T14:32:10;4.90;;;1.95;;
21122;SDS011;10719;48.130;11.630;2023-07-16T14:34:36;3.78;;;1.77;;
21122;SDS011;10719;48.130;11.630;2023-07-16T14:37:01;3.38;;;1.73;;